Time;durP1;ratioP1;P1;durP2;ratioP2;P2;SDS_P1;SDS_P2;PMS_P1;PMS_P2;Temp;Humidity;BMP_temperature;BMP_pressure;BME280_temperature;BME280_humidity;BME280_pressure;Samples;Min_cycle;Max_cycle;Signal;HPM_P1;HPM_P2
2023/03/25 00:00:52;;;;;;;7.37;4.20;;;9.10;1.00;;;;;;5043357;28;20775;-84
2023/03/25 00:03:19;;;;;;;6.43;3.93;;;8.90;99.90;;;;;;5037914;28;21062;-83
2023/03/25 00:05:46;;;;;;;4.20;3.80;;;9.00;99.90;;;;;;5038335;28;20916;-83
2023/03/25 00:08:13;;;;;;;4.20;2.87;;;9.10;66.00;;;;;;5040495;28;20456;-83
2023/03/25 00:10:40;;;;;;;4.20;3.70;;;9.00;99.90;;;;;;5040549;28;20453;-83
2023/03/25 00:13:08;;;;;;;8.07;4.80;;;9.00;99.90;;;;;;5042355;28;20494;-83
2023/03/25 00:15:34;;;;;;;12.37;6.60;;;9.00;99.90;;;;;;5050675;28;20418;-83
2023/03/25 00:18:01;;;;;;;13.60;7.43;;;8.90;99.90;;;;;;5053125;28;20448;-83
2023/03/25 00:20:28;;;;;;;6.23;4.90;;;8.90;99.90;;;;;;5044832;28;20562;-84
2023/03/25 00:22:55;;;;;;;4.27;3.87;;;8.90;99.90;;;;;;5043049;28;20470;-83
2023/03/25 00:25:23;;;;;;;5.00;3.10;;;8.80;99.90;;;;;;5040347;28;20510;-83
2023/03/25 00:27:50;;;;;;;2.73;2.63;;;8.80;99.90;;;;;;5039723;28;20950;-82
2023/03/25 00:30:19;;;;;;;3.53;3.23;;;8.80;99.90;;;;;;5043516;28;20444;-82
2023/03/25 00:32:48;;;;;;;4.50;3.03;;;8.90;99.90;;;;;;5043880;28;20476;-83
2023/03/25 00:35:16;;;;;;;3.03;2.80;;;8.80;99.90;;;;;;5045858;28;20448;-84
2023/03/25 00:37:44;;;;;;;4.73;3.47;;;8.80;99.90;;;;;;5056120;28;20457;-83
2023/03/25 00:40:11;;;;;;;3.30;3.00;;;8.90;99.90;;;;;;5056873;28;20423;-82
2023/03/25 00:42:48;;;;;;;2.83;2.63;;;8.90;99.90;;;;;;5046839;28;20465;-82
2023/03/25 00:45:15;;;;;;;4.30;3.90;;;8.70;1.00;;;;;;5047843;28;20435;-83
2023/03/25 00:47:43;;;;;;;7.27;5.30;;;8.80;99.90;;;;;;5043155;28;20509;-84
2023/03/25 00:50:11;;;;;;;6.90;5.27;;;8.80;99.90;;;;;;5042738;28;20497;-84
2023/03/25 00:52:38;;;;;;;7.17;5.27;;;8.80;99.90;;;;;;5046351;28;20547;-83
2023/03/25 00:55:06;;;;;;;8.63;5.53;;;8.80;99.90;;;;;;5048174;28;20488;-83
2023/03/25 00:57:33;;;;;;;14.63;7.77;;;8.80;99.90;;;;;;5049450;28;20473;-83
2023/03/25 01:00:00;;;;;;;10.23;6.23;;;8.70;99.90;;;;;;5049240;28;20445;-83
2023/03/25 01:02:26;;;;;;;5.97;4.87;;;8.40;1.00;;;;;;5048516;28;20423;-82
2023/03/25 01:04:56;;;;;;;3.70;3.30;;;8.60;99.90;;;;;;5047880;28;20537;-83
2023/03/25 01:07:23;;;;;;;5.27;2.80;;;8.70;1.00;;;;;;5047911;28;20454;-83
2023/03/25 01:09:50;;;;;;;3.80;3.50;;;8.70;99.90;;;;;;5049600;28;20525;-83
2023/03/25 01:12:18;;;;;;;3.27;2.97;;;8.60;1.00;;;;;;5051754;28;20448;-83
2023/03/25 01:14:45;;;;;;;5.60;2.37;;;8.60;1.00;;;;;;5054873;28;20483;-83
2023/03/25 01:17:12;;;;;;;3.60;3.30;;;8.70;99.90;;;;;;5057489;28;20452;-81
2023/03/25 01:19:39;;;;;;;9.67;3.53;;;8.60;99.90;;;;;;5055984;28;20480;-82
2023/03/25 01:22:07;;;;;;;3.40;3.00;;;8.60;1.00;;;;;;5057023;28;20444;-82
2023/03/25 01:24:34;;;;;;;4.77;2.97;;;8.60;1.00;;;;;;5055210;28;20464;-83
2023/03/25 01:27:01;;;;;;;3.77;3.37;;;8.70;1.00;;;;;;5054869;28;20468;-84
2023/03/25 01:29:28;;;;;;;3.17;2.80;;;8.80;1.00;;;;;;5050431;28;20484;-83
2023/03/25 01:31:56;;;;;;;7.27;4.43;;;8.70;99.90;;;;;;5048145;28;20452;-83
2023/03/25 01:34:23;;;;;;;4.00;3.60;;;8.90;99.90;;;;;;5047649;28;20488;-83
2023/03/25 01:36:50;;;;;;;4.00;3.70;;;8.70;99.90;;;;;;5045564;28;20452;-83
2023/03/25 01:39:19;;;;;;;3.37;3.07;;;8.60;99.90;;;;;;5047394;28;20452;-82
2023/03/25 01:41:47;;;;;;;4.43;3.90;;;8.40;1.00;;;;;;5046813;28;20451;-83
2023/03/25 01:45:02;;;;;;;2.70;2.50;;;8.50;99.90;;;;;;5047300;28;20483;-83
2023/03/25 01:47:29;;;;;;;3.13;2.93;;;8.70;1.00;;;;;;4987400;28;20436;-83
2023/03/25 01:49:56;;;;;;;2.60;2.40;;;8.50;99.90;;;;;;4987170;28;20555;-83
2023/03/25 01:52:25;;;;;;;3.53;2.73;;;8.30;1.00;;;;;;5010407;28;20852;-83
2023/03/25 01:54:56;;;;;;;4.40;3.07;;;8.50;1.00;;;;;;5046246;23;20532;-83
2023/03/25 01:57:24;;;;;;;3.47;2.53;;;8.60;1.00;;;;;;5029101;28;20431;-83
2023/03/25 01:59:54;;;;;;;4.97;3.30;;;8.60;1.00;;;;;;5032023;28;20446;-82
2023/03/25 02:02:23;;;;;;;3.13;2.83;;;8.50;1.00;;;;;;5034664;28;20460;-82
2023/03/25 02:04:57;;;;;;;3.20;2.90;;;8.50;1.00;;;;;;5031686;28;20486;-83
2023/03/25 02:07:29;;;;;;;4.73;2.80;;;8.50;1.00;;;;;;5027999;28;20469;-82
2023/03/25 02:09:59;;;;;;;3.80;2.70;;;8.50;1.00;;;;;;5027516;28;20913;-83
2023/03/25 02:12:26;;;;;;;4.87;2.63;;;8.50;1.00;;;;;;5029137;28;20943;-84
2023/03/25 02:14:53;;;;;;;2.10;1.90;;;8.50;99.90;;;;;;5030321;28;20524;-84
2023/03/25 02:17:28;;;;;;;4.03;2.47;;;8.50;99.90;;;;;;5031507;28;20525;-85
2023/03/25 02:20:24;;;;;;;2.90;2.47;;;8.60;99.90;;;;;;5031645;28;20439;-85
2023/03/25 02:23:20;;;;;;;2.80;2.10;;;8.60;1.00;;;;;;5028575;28;20505;-83
2023/03/25 02:26:19;;;;;;;4.83;2.30;;;8.70;99.90;;;;;;5028615;28;20420;-83
2023/03/25 02:28:55;;;;;;;5.30;2.40;;;8.80;99.90;;;;;;5028164;28;20408;-83
2023/03/25 02:31:55;;;;;;;4.00;1.97;;;8.70;99.90;;;;;;5030080;28;20760;-84
2023/03/25 02:34:45;;;;;;;5.57;2.10;;;8.70;99.90;;;;;;5028503;28;20481;-83
2023/03/25 02:37:33;;;;;;;3.00;2.30;;;8.70;99.90;;;;;;5034133;28;20466;-83
2023/03/25 02:40:06;;;;;;;5.77;2.20;;;8.80;99.90;;;;;;5037118;28;20418;-82
2023/03/25 02:42:38;;;;;;;11.23;3.10;;;8.50;99.90;;;;;;5034297;28;20441;-83
2023/03/25 02:45:09;;;;;;;3.33;2.10;;;8.70;99.90;;;;;;5033597;28;20438;-83
2023/03/25 02:47:42;;;;;;;2.50;2.27;;;8.80;99.90;;;;;;5032765;28;20512;-84
2023/03/25 02:50:14;;;;;;;3.70;2.20;;;8.90;99.90;;;;;;5033390;28;20442;-83
2023/03/25 02:52:45;;;;;;;4.50;2.77;;;8.80;99.90;;;;;;5032422;28;20574;-84
2023/03/25 02:55:17;;;;;;;6.20;3.07;;;8.80;99.90;;;;;;5030435;28;20542;-84
2023/03/25 02:57:46;;;;;;;4.23;2.57;;;8.70;99.90;;;;;;5032988;28;20407;-83
2023/03/25 03:00:15;;;;;;;5.17;4.00;;;8.80;99.90;;;;;;5030558;28;20424;-84
2023/03/25 03:02:49;;;;;;;3.70;3.43;;;8.70;99.90;;;;;;5029355;28;20485;-83
2023/03/25 03:05:24;;;;;;;3.47;3.17;;;8.70;99.90;;;;;;5028524;28;20488;-84
2023/03/25 03:07:59;;;;;;;3.60;2.63;;;8.70;99.90;;;;;;5030830;28;20491;-83
2023/03/25 03:10:36;;;;;;;3.57;3.00;;;8.70;99.90;;;;;;5027605;28;20503;-83
2023/03/25 03:13:14;;;;;;;4.00;3.03;;;8.80;99.90;;;;;;5026592;28;20431;-83
2023/03/25 03:15:49;;;;;;;3.50;3.20;;;8.80;99.90;;;;;;5027868;28;20443;-83
2023/03/25 03:18:33;;;;;;;4.37;2.93;;;8.90;99.90;;;;;;5029316;28;20464;-83
2023/03/25 03:21:08;;;;;;;4.00;2.90;;;8.90;99.90;;;;;;5029638;28;20447;-83
2023/03/25 03:23:44;;;;;;;11.17;3.50;;;8.70;99.90;;;;;;5029711;28;20899;-84
2023/03/25 03:26:24;;;;;;;4.10;2.90;;;8.90;99.90;;;;;;5030810;28;20430;-83
2023/03/25 03:28:57;;;;;;;5.70;3.23;;;8.90;99.90;;;;;;5030832;28;20476;-84
2023/03/25 03:31:29;;;;;;;3.30;2.87;;;9.00;99.90;;;;;;5030315;28;20444;-82
2023/03/25 03:34:01;;;;;;;3.43;2.73;;;8.80;1.00;;;;;;5035814;28;20533;-83
2023/03/25 03:36:32;;;;;;;6.10;3.30;;;9.00;1.00;;;;;;5034104;28;20417;-84
2023/03/25 03:39:03;;;;;;;9.93;3.50;;;9.00;1.00;;;;;;5028397;28;20471;-84
2023/03/25 03:41:35;;;;;;;8.20;3.00;;;9.00;1.00;;;;;;5028458;28;20405;-83
2023/03/25 03:44:06;;;;;;;6.40;2.97;;;8.90;99.90;;;;;;5035641;28;20457;-84
2023/03/25 03:46:38;;;;;;;3.80;2.53;;;8.90;99.90;;;;;;5030992;28;20496;-84
2023/03/25 03:49:09;;;;;;;2.60;2.40;;;8.70;1.00;;;;;;5029283;28;20503;-84
2023/03/25 03:51:38;;;;;;;2.83;2.63;;;8.80;1.00;;;;;;5028882;28;20427;-84
2023/03/25 03:54:09;;;;;;;6.30;2.67;;;8.80;1.00;;;;;;5028690;28;20920;-84
2023/03/25 03:56:45;;;;;;;6.10;2.40;;;8.60;1.00;;;;;;5027763;28;20424;-84
2023/03/25 03:59:17;;;;;;;9.27;3.60;;;8.80;1.00;;;;;;5028626;28;20429;-84
2023/03/25 04:01:46;;;;;;;8.17;2.90;;;8.80;1.00;;;;;;5027562;28;20517;-85
2023/03/25 04:04:16;;;;;;;4.13;2.85;;;8.70;1.00;;;;;;5027036;28;20500;-85
2023/03/25 04:06:46;;;;;;;3.93;2.47;;;8.80;1.00;;;;;;5033653;28;20187;-84
2023/03/25 04:09:26;;;;;;;7.07;3.08;;;8.80;1.00;;;;;;5038375;28;20488;-84
2023/03/25 04:11:59;;;;;;;3.57;2.87;;;8.70;1.00;;;;;;5027753;28;20224;-84
2023/03/25 04:14:26;;;;;;;3.27;2.97;;;8.70;1.00;;;;;;5027023;28;20922;-84
2023/03/25 04:16:55;;;;;;;4.47;2.10;;;8.70;1.00;;;;;;5026981;28;20849;-84
2023/03/25 04:19:22;;;;;;;3.13;2.57;;;8.70;1.00;;;;;;5027467;28;20472;-83
2023/03/25 04:21:49;;;;;;;3.20;2.47;;;8.70;1.00;;;;;;5029675;28;20423;-83
2023/03/25 04:24:18;;;;;;;2.33;2.03;;;8.70;1.00;;;;;;5033359;28;20472;-81
2023/03/25 04:26:46;;;;;;;2.93;2.30;;;8.70;1.00;;;;;;5037113;28;20428;-83
2023/03/25 04:29:14;;;;;;;3.53;2.20;;;8.70;1.00;;;;;;5028990;28;20457;-83
2023/03/25 04:31:44;;;;;;;7.27;2.20;;;8.70;1.00;;;;;;5031887;28;20436;-83
2023/03/25 04:34:13;;;;;;;3.83;2.13;;;8.70;1.00;;;;;;5028315;28;20524;-84
2023/03/25 04:36:41;;;;;;;2.87;2.57;;;8.70;1.00;;;;;;5027561;28;20453;-84
2023/03/25 04:39:10;;;;;;;5.73;2.47;;;8.80;1.00;;;;;;5027703;28;20432;-83
2023/03/25 04:41:37;;;;;;;3.13;2.83;;;8.80;1.00;;;;;;5027393;28;20425;-83
2023/03/25 04:44:06;;;;;;;4.00;1.87;;;8.80;1.00;;;;;;5028099;28;20456;-83
2023/03/25 04:46:35;;;;;;;3.97;2.80;;;8.80;1.00;;;;;;5029531;28;20437;-83
2023/03/25 04:49:04;;;;;;;3.13;2.10;;;8.80;1.00;;;;;;5032226;28;20424;-83
2023/03/25 04:51:32;;;;;;;2.20;2.00;;;8.80;1.00;;;;;;5033618;28;20453;-84
2023/03/25 04:53:59;;;;;;;2.73;2.40;;;8.70;1.00;;;;;;5031255;28;20463;-83
2023/03/25 04:56:26;;;;;;;2.03;1.93;;;8.70;1.00;;;;;;5031375;28;20479;-83
2023/03/25 04:58:53;;;;;;;3.90;3.10;;;8.70;1.00;;;;;;5031420;28;20474;-83
2023/03/25 05:01:29;;;;;;;2.70;1.90;;;8.60;1.00;;;;;;5031151;28;20420;-83
2023/03/25 05:04:03;;;;;;;2.77;2.30;;;8.60;1.00;;;;;;5030591;28;21032;-84
2023/03/25 05:06:32;;;;;;;3.60;1.83;;;8.60;1.00;;;;;;5030247;28;20412;-82
2023/03/25 05:09:00;;;;;;;4.10;1.90;;;8.80;1.00;;;;;;5037142;28;20435;-82
2023/03/25 05:11:27;;;;;;;2.60;2.40;;;8.60;1.00;;;;;;5037529;28;20873;-82
2023/03/25 05:13:54;;;;;;;2.70;2.20;;;8.60;1.00;;;;;;5031595;28;20496;-83
2023/03/25 05:16:21;;;;;;;3.90;1.90;;;8.60;99.90;;;;;;5029630;28;20919;-84
2023/03/25 05:18:48;;;;;;;12.00;7.47;;;8.60;99.90;;;;;;5029659;28;20456;-84
2023/03/25 05:21:17;;;;;;;5.10;3.30;;;8.60;99.90;;;;;;5029289;28;20486;-84
2023/03/25 05:23:44;;;;;;;3.57;2.90;;;8.60;99.90;;;;;;5029949;28;20555;-84
2023/03/25 05:26:11;;;;;;;4.50;3.07;;;8.50;99.90;;;;;;5032905;28;20428;-83
2023/03/25 05:28:39;;;;;;;3.70;3.00;;;8.50;99.90;;;;;;5036133;28;20442;-83
2023/03/25 05:31:07;;;;;;;4.83;2.37;;;8.50;99.90;;;;;;5035800;28;20535;-83
2023/03/25 05:33:35;;;;;;;4.10;1.93;;;8.50;99.90;;;;;;5034216;28;20523;-83
2023/03/25 05:36:03;;;;;;;3.80;2.63;;;8.50;99.90;;;;;;5031626;28;20451;-84
2023/03/25 05:38:32;;;;;;;2.83;2.17;;;8.60;99.90;;;;;;5031157;28;20943;-84
2023/03/25 05:41:00;;;;;;;2.00;1.83;;;8.60;99.90;;;;;;5030770;28;20458;-85
2023/03/25 05:43:26;;;;;;;3.27;1.67;;;8.60;99.90;;;;;;5037514;28;20477;-83
2023/03/25 05:45:53;;;;;;;2.37;2.17;;;9.00;99.90;;;;;;5040886;28;20415;-83
2023/03/25 05:48:20;;;;;;;2.60;1.97;;;8.40;99.90;;;;;;5027389;28;20453;-84
2023/03/25 05:50:47;;;;;;;1.83;1.40;;;8.80;99.90;;;;;;5023273;28;20473;-83
2023/03/25 05:53:15;;;;;;;4.50;2.20;;;9.10;99.90;;;;;;5021875;28;20953;-84
2023/03/25 05:55:43;;;;;;;4.17;1.80;;;8.90;99.90;;;;;;5020288;28;20481;-83
2023/03/25 05:58:10;;;;;;;4.77;2.33;;;9.00;99.90;;;;;;5020362;28;20536;-83
2023/03/25 06:00:39;;;;;;;6.17;5.57;;;9.00;81.90;;;;;;5022307;28;20551;-84
2023/03/25 06:03:07;;;;;;;3.47;2.50;;;8.70;99.90;;;;;;5022884;28;20446;-84
2023/03/25 06:05:34;;;;;;;2.20;1.93;;;9.00;27.20;;;;;;5026226;28;20416;-83
2023/03/25 06:08:01;;;;;;;3.47;2.00;;;9.00;1.00;;;;;;5030984;28;20777;-85
2023/03/25 06:10:28;;;;;;;2.13;1.60;;;9.00;1.00;;;;;;5029472;28;20457;-84
2023/03/25 06:12:56;;;;;;;2.00;1.70;;;9.00;1.00;;;;;;5029146;28;20457;-82
2023/03/25 06:15:27;;;;;;;2.80;1.40;;;9.10;1.00;;;;;;5030723;28;20528;-84
2023/03/25 06:17:55;;;;;;;2.53;2.13;;;9.10;1.00;;;;;;5028413;28;20525;-84
2023/03/25 06:20:22;;;;;;;4.00;1.97;;;9.20;99.90;;;;;;5027667;28;20424;-84
2023/03/25 06:22:49;;;;;;;7.20;1.40;;;9.20;92.10;;;;;;5030076;28;20450;-83
2023/03/25 06:25:18;;;;;;;2.87;1.70;;;9.20;61.00;;;;;;5039593;28;20440;-84
2023/03/25 06:27:45;;;;;;;2.70;1.47;;;9.20;17.80;;;;;;5036563;28;20438;-83
2023/03/25 06:30:16;;;;;;;2.00;1.40;;;9.30;1.00;;;;;;5030230;28;20445;-82
2023/03/25 06:32:43;;;;;;;3.10;1.47;;;9.50;1.00;;;;;;5027536;28;20522;-84
2023/03/25 06:35:11;;;;;;;2.07;1.53;;;9.40;1.00;;;;;;5026983;28;20584;-83
2023/03/25 06:37:38;;;;;;;4.83;1.40;;;9.40;1.00;;;;;;5025482;28;20960;-82
2023/03/25 06:40:06;;;;;;;5.20;1.40;;;9.40;1.00;;;;;;5029692;28;20457;-83
2023/03/25 06:42:33;;;;;;;5.97;2.10;;;9.70;1.00;;;;;;5022359;28;20459;-82
2023/03/25 06:45:01;;;;;;;9.13;2.07;;;9.50;1.00;;;;;;5022722;28;20472;-83
2023/03/25 06:47:30;;;;;;;3.00;1.60;;;9.80;1.00;;;;;;5023173;28;21023;-83
2023/03/25 06:49:56;;;;;;;3.00;1.13;;;9.60;1.00;;;;;;5022649;28;20486;-83
2023/03/25 06:52:23;;;;;;;1.30;1.20;;;9.50;1.00;;;;;;5022153;28;20443;-83
2023/03/25 06:54:50;;;;;;;3.50;1.40;;;9.60;1.00;;;;;;5021712;28;20501;-83
2023/03/25 06:57:18;;;;;;;3.20;1.40;;;9.50;1.00;;;;;;5027157;28;20452;-83
2023/03/25 06:59:46;;;;;;;4.60;1.60;;;9.70;1.00;;;;;;5022229;28;20463;-83
2023/03/25 07:02:13;;;;;;;8.97;1.67;;;9.50;1.00;;;;;;5022580;28;20514;-83
2023/03/25 07:04:41;;;;;;;2.57;1.13;;;9.40;1.00;;;;;;5022334;28;20550;-83
2023/03/25 07:07:09;;;;;;;1.47;1.17;;;9.40;1.00;;;;;;5022373;28;20447;-83
2023/03/25 07:09:35;;;;;;;2.13;0.93;;;9.40;1.00;;;;;;5022499;28;20436;-81
2023/03/25 07:12:03;;;;;;;4.03;1.43;;;9.40;1.00;;;;;;5023491;28;20445;-82
2023/03/25 07:14:29;;;;;;;1.83;1.60;;;9.80;1.00;;;;;;5034342;28;20433;-82
2023/03/25 07:16:56;;;;;;;2.40;1.20;;;9.50;1.00;;;;;;5037693;28;20497;-80
2023/03/25 07:19:23;;;;;;;2.67;2.23;;;9.50;1.00;;;;;;5038223;28;20438;-81
2023/03/25 07:21:51;;;;;;;1.97;1.50;;;9.70;1.00;;;;;;5035609;28;20522;-82
2023/03/25 07:24:18;;;;;;;2.03;1.60;;;9.80;99.90;;;;;;5026204;28;20458;-82
2023/03/25 07:26:45;;;;;;;3.20;1.70;;;9.80;99.90;;;;;;5024821;28;20525;-83
2023/03/25 07:29:12;;;;;;;1.30;1.20;;;9.90;99.90;;;;;;5024595;28;20521;-83
2023/03/25 07:31:40;;;;;;;4.70;1.73;;;9.90;99.90;;;;;;5024184;28;20470;-83
2023/03/25 07:34:07;;;;;;;1.70;0.87;;;10.10;99.90;;;;;;5023684;28;20525;-82
2023/03/25 07:36:34;;;;;;;3.40;1.13;;;10.10;99.90;;;;;;5024023;28;20462;-82
2023/03/25 07:39:03;;;;;;;3.73;1.33;;;10.20;1.00;;;;;;5023822;28;20456;-83
2023/03/25 07:41:29;;;;;;;2.80;1.10;;;10.40;1.00;;;;;;5028909;28;20487;-82
2023/03/25 07:43:59;;;;;;;3.93;1.23;;;10.50;99.90;;;;;;5035753;28;20445;-83
2023/03/25 07:46:26;;;;;;;4.00;1.40;;;10.30;97.00;;;;;;5030649;28;20489;-82
2023/03/25 07:48:53;;;;;;;34.77;4.40;;;10.70;1.00;;;;;;5026603;28;20530;-85
2023/03/25 07:51:23;;;;;;;6.80;2.13;;;10.80;1.00;;;;;;5024844;28;20433;-83
2023/03/25 07:53:50;;;;;;;4.53;1.47;;;11.00;99.90;;;;;;5055917;23;20516;-82
2023/03/25 07:56:18;;;;;;;4.03;1.20;;;11.10;99.90;;;;;;5039054;28;20580;-81
2023/03/25 07:58:45;;;;;;;3.43;1.63;;;11.10;1.00;;;;;;5038957;28;20962;-81
2023/03/25 08:01:12;;;;;;;6.10;1.83;;;11.10;1.00;;;;;;5038717;28;20457;-80
2023/03/25 08:03:39;;;;;;;3.17;1.50;;;11.20;28.40;;;;;;5037585;28;20540;-80
2023/03/25 08:06:06;;;;;;;7.33;1.47;;;11.20;1.00;;;;;;5038659;28;20419;-81
2023/03/25 08:08:33;;;;;;;6.17;1.40;;;11.20;99.90;;;;;;5039145;28;20444;-81
2023/03/25 08:11:00;;;;;;;7.63;2.47;;;11.20;99.90;;;;;;5041183;28;20459;-80
2023/03/25 08:13:28;;;;;;;3.37;1.30;;;11.20;99.90;;;;;;5043510;28;20456;-80
2023/03/25 08:15:55;;;;;;;1.40;1.20;;;11.30;99.90;;;;;;5045716;28;20510;-82
2023/03/25 08:18:23;;;;;;;5.90;1.10;;;11.30;99.90;;;;;;5049728;28;20494;-81
2023/03/25 08:20:50;;;;;;;2.87;1.20;;;11.30;99.90;;;;;;5048088;28;20485;-80
2023/03/25 08:23:18;;;;;;;2.50;1.27;;;11.60;99.90;;;;;;5045041;28;20459;-81
2023/03/25 08:25:47;;;;;;;3.60;1.90;;;11.40;99.90;;;;;;5043863;28;20469;-81
2023/03/25 08:28:16;;;;;;;1.93;1.20;;;11.40;21.70;;;;;;5043352;28;20456;-80
2023/03/25 08:30:45;;;;;;;3.73;1.30;;;11.40;10.30;;;;;;5041602;28;20456;-80
2023/03/25 08:33:11;;;;;;;5.90;1.50;;;11.50;10.00;;;;;;5050951;28;20510;-81
2023/03/25 08:35:39;;;;;;;3.70;1.17;;;11.70;1.00;;;;;;5055423;28;20516;-81
2023/03/25 08:38:06;;;;;;;1.90;1.40;;;11.60;99.90;;;;;;5055308;28;20513;-81
2023/03/25 08:40:33;;;;;;;2.30;0.90;;;12.00;1.00;;;;;;5055939;28;20508;-81
2023/03/25 08:43:00;;;;;;;2.80;0.90;;;12.00;1.00;;;;;;5056549;28;20540;-81
2023/03/25 08:45:27;;;;;;;5.03;1.40;;;11.90;1.00;;;;;;5054942;28;20473;-82
2023/03/25 08:47:55;;;;;;;2.30;0.90;;;11.90;1.00;;;;;;5056297;28;20549;-82
2023/03/25 08:50:22;;;;;;;1.20;1.10;;;11.90;1.00;;;;;;5052394;28;20479;-82
2023/03/25 08:52:52;;;;;;;3.27;1.60;;;11.80;1.00;;;;;;5047015;28;20968;-82
2023/03/25 08:55:19;;;;;;;2.10;1.60;;;11.80;1.00;;;;;;5045207;28;20481;-82
2023/03/25 08:57:46;;;;;;;2.57;2.47;;;10.50;1.00;;;;;;5044698;28;20504;-82
2023/03/25 09:00:14;;;;;;;1.80;1.53;;;11.80;1.00;;;;;;5042815;28;20453;-82
2023/03/25 09:02:41;;;;;;;1.30;1.00;;;11.90;1.00;;;;;;5042419;28;20408;-81
2023/03/25 09:05:11;;;;;;;2.57;1.07;;;11.90;1.00;;;;;;5043098;28;20474;-81
2023/03/25 09:07:39;;;;;;;2.17;1.13;;;11.90;1.00;;;;;;5044703;28;20850;-82
2023/03/25 09:10:09;;;;;;;7.23;2.27;;;11.90;1.00;;;;;;5043996;28;20427;-82
2023/03/25 09:12:36;;;;;;;2.07;1.97;;;11.80;1.00;;;;;;5042660;28;20442;-82
2023/03/25 09:15:03;;;;;;;5.30;4.80;;;11.80;1.00;;;;;;5044306;28;20499;-81
2023/03/25 09:17:30;;;;;;;9.23;5.20;;;11.80;1.00;;;;;;5045927;28;20480;-81
2023/03/25 09:19:57;;;;;;;5.43;3.20;;;11.70;1.00;;;;;;5046158;28;20538;-81
2023/03/25 09:22:25;;;;;;;4.90;4.50;;;12.00;6.30;;;;;;5045726;28;20504;-81
2023/03/25 09:24:52;;;;;;;5.80;2.70;;;11.80;1.00;;;;;;5047385;28;20487;-82
2023/03/25 09:27:19;;;;;;;2.90;1.67;;;11.90;1.00;;;;;;5047619;28;20459;-81
2023/03/25 09:29:46;;;;;;;1.87;1.30;;;12.20;1.00;;;;;;5047683;28;20572;-82
2023/03/25 09:32:13;;;;;;;4.17;1.33;;;11.60;1.00;;;;;;5046797;28;20457;-82
2023/03/25 09:34:40;;;;;;;3.27;2.17;;;11.90;1.00;;;;;;5047723;28;20457;-82
2023/03/25 09:37:07;;;;;;;2.80;1.87;;;11.90;1.00;;;;;;5043989;28;20484;-81
2023/03/25 09:39:35;;;;;;;2.33;1.40;;;12.10;1.00;;;;;;5042564;28;20486;-82
2023/03/25 09:42:16;;;;;;;2.73;1.43;;;11.80;1.00;;;;;;5043254;28;20451;-81
2023/03/25 09:44:55;;;;;;;1.17;1.07;;;11.70;1.00;;;;;;5041303;28;21054;-81
2023/03/25 09:47:24;;;;;;;1.77;1.23;;;11.60;1.00;;;;;;5041932;28;20437;-81
2023/03/25 09:49:57;;;;;;;1.67;1.57;;;11.60;1.00;;;;;;5044250;28;20958;-81
2023/03/25 09:52:27;;;;;;;1.90;1.33;;;11.80;1.00;;;;;;5045679;28;20429;-82
2023/03/25 09:54:59;;;;;;;2.47;2.00;;;11.90;1.00;;;;;;5044134;28;20570;-81
2023/03/25 09:57:37;;;;;;;2.60;1.70;;;12.10;1.00;;;;;;5041256;28;20832;-82
2023/03/25 10:00:06;;;;;;;5.60;1.53;;;12.00;1.00;;;;;;5040450;28;20441;-81
2023/03/25 10:02:41;;;;;;;1.10;1.00;;;12.30;1.00;;;;;;5041120;28;20461;-82
2023/03/25 10:05:23;;;;;;;1.37;0.97;;;12.40;1.00;;;;;;5043837;28;20471;-82
2023/03/25 10:08:03;;;;;;;3.13;1.30;;;12.60;1.00;;;;;;5041875;28;20437;-82
2023/03/25 10:10:36;;;;;;;2.77;1.20;;;12.60;1.00;;;;;;5044449;28;20511;-82
2023/03/25 10:13:12;;;;;;;3.23;1.53;;;12.50;1.00;;;;;;5045107;28;20417;-81
2023/03/25 10:15:47;;;;;;;1.40;1.20;;;12.30;1.00;;;;;;5041601;28;20548;-81
2023/03/25 10:18:35;;;;;;;1.50;1.17;;;12.30;1.00;;;;;;5042241;28;20426;-83
2023/03/25 10:21:08;;;;;;;2.70;1.20;;;12.40;1.00;;;;;;5040924;28;20435;-81
2023/03/25 10:23:42;;;;;;;4.33;1.20;;;12.10;1.00;;;;;;5040547;28;20492;-82
2023/03/25 10:26:16;;;;;;;3.83;1.10;;;12.30;1.00;;;;;;5041156;28;20784;-82
2023/03/25 10:28:50;;;;;;;1.47;1.10;;;12.30;1.00;;;;;;5041678;28;20426;-81
2023/03/25 10:31:20;;;;;;;1.93;1.37;;;12.30;1.00;;;;;;5047026;28;20514;-81
2023/03/25 10:33:53;;;;;;;1.20;1.10;;;12.30;1.00;;;;;;5047836;28;20478;-81
2023/03/25 10:36:27;;;;;;;1.87;1.47;;;12.60;1.00;;;;;;5048695;28;20471;-82
2023/03/25 10:38:54;;;;;;;1.97;1.20;;;12.80;1.00;;;;;;5048397;28;20433;-82
2023/03/25 10:41:27;;;;;;;5.63;1.40;;;13.00;1.00;;;;;;5047212;28;20772;-82
2023/03/25 10:43:54;;;;;;;2.07;1.40;;;12.90;1.00;;;;;;5040865;28;20999;-82
2023/03/25 10:46:29;;;;;;;3.27;1.23;;;12.80;1.00;;;;;;5041774;28;20566;-81
2023/03/25 10:48:56;;;;;;;1.43;1.00;;;12.80;1.00;;;;;;5039932;28;20797;-81
2023/03/25 10:51:27;;;;;;;3.00;1.30;;;12.80;1.00;;;;;;5040016;28;20470;-82
2023/03/25 10:53:54;;;;;;;12.47;2.93;;;12.80;1.00;;;;;;5040563;28;20559;-80
2023/03/25 10:56:25;;;;;;;6.23;2.70;;;12.70;1.00;;;;;;5041855;28;20500;-82
2023/03/25 10:58:54;;;;;;;3.77;1.70;;;12.70;1.00;;;;;;5043074;28;20440;-81
2023/03/25 11:01:34;;;;;;;1.77;1.10;;;12.60;1.00;;;;;;5041685;28;20487;-83
2023/03/25 11:04:03;;;;;;;2.30;1.17;;;12.80;1.00;;;;;;5041127;28;20491;-81
2023/03/25 11:06:34;;;;;;;4.40;1.43;;;13.00;1.00;;;;;;5040612;28;20444;-82
2023/03/25 11:09:27;;;;;;;2.80;1.43;;;13.20;1.00;;;;;;5043317;28;20470;-83
2023/03/25 11:11:55;;;;;;;2.83;2.17;;;13.30;1.00;;;;;;5030353;28;20460;-82
2023/03/25 11:14:24;;;;;;;1.30;1.20;;;13.50;1.00;;;;;;5051705;28;20464;-82
2023/03/25 11:16:55;;;;;;;2.40;1.30;;;13.30;1.00;;;;;;5053096;28;20476;-81
2023/03/25 11:19:27;;;;;;;4.20;1.70;;;13.30;1.00;;;;;;5051767;28;20458;-80
2023/03/25 11:21:56;;;;;;;3.67;1.20;;;13.40;1.00;;;;;;5049400;28;20460;-81
2023/03/25 11:24:28;;;;;;;6.33;1.27;;;13.50;1.00;;;;;;5050513;28;20548;-80
2023/03/25 11:26:56;;;;;;;3.77;1.13;;;13.60;1.00;;;;;;5046066;28;20503;-82
2023/03/25 11:29:26;;;;;;;1.33;1.00;;;13.50;1.00;;;;;;5054726;28;20455;-81
2023/03/25 11:31:58;;;;;;;1.70;1.10;;;13.20;1.00;;;;;;5052102;28;20578;-81
2023/03/25 11:34:25;;;;;;;1.67;1.57;;;13.10;1.00;;;;;;5042948;28;20565;-82
2023/03/25 11:36:54;;;;;;;1.10;1.00;;;13.00;1.00;;;;;;5045284;28;20476;-82
2023/03/25 11:39:28;;;;;;;9.07;1.20;;;13.20;1.00;;;;;;5040090;28;20456;-81
2023/03/25 11:41:57;;;;;;;3.07;1.57;;;14.10;1.00;;;;;;5038924;28;20428;-81
2023/03/25 11:44:28;;;;;;;7.23;1.20;;;13.40;1.00;;;;;;5042615;28;20559;-82
2023/03/25 11:46:57;;;;;;;1.70;1.27;;;13.20;1.00;;;;;;5039566;28;20829;-82
2023/03/25 11:49:26;;;;;;;1.80;1.47;;;13.20;1.00;;;;;;5041877;28;20871;-82
2023/03/25 11:51:59;;;;;;;2.60;1.27;;;13.10;1.00;;;;;;5040998;28;20450;-81
2023/03/25 11:54:27;;;;;;;3.10;1.13;;;12.60;1.00;;;;;;5043404;28;20487;-82
2023/03/25 11:56:56;;;;;;;3.33;1.60;;;12.30;1.00;;;;;;5041912;28;20489;-81
2023/03/25 11:59:25;;;;;;;2.93;1.50;;;12.00;1.00;;;;;;5040927;28;20528;-80
2023/03/25 12:02:02;;;;;;;1.70;1.20;;;12.10;1.00;;;;;;5040154;28;20450;-80
2023/03/25 12:04:30;;;;;;;1.47;1.10;;;12.20;1.00;;;;;;5041240;28;20894;-81
2023/03/25 12:07:00;;;;;;;1.20;1.10;;;12.40;1.00;;;;;;5040175;28;21030;-82
2023/03/25 12:09:28;;;;;;;5.50;1.30;;;12.60;1.00;;;;;;5040020;28;20414;-82
2023/03/25 12:12:07;;;;;;;2.97;1.53;;;12.60;1.00;;;;;;5041534;28;20450;-81
2023/03/25 12:14:46;;;;;;;2.50;1.40;;;12.70;1.00;;;;;;5042339;28;20574;-82
2023/03/25 12:17:22;;;;;;;1.43;1.33;;;12.80;1.00;;;;;;5042054;28;20468;-81
2023/03/25 12:19:57;;;;;;;2.40;1.10;;;13.10;1.00;;;;;;5041432;28;20882;-82
2023/03/25 12:22:38;;;;;;;1.40;1.30;;;13.30;1.00;;;;;;5041996;28;20532;-84
2023/03/25 12:25:25;;;;;;;1.33;1.20;;;13.40;1.00;;;;;;5044603;28;20476;-82
2023/03/25 12:28:20;;;;;;;2.60;1.10;;;13.30;1.00;;;;;;5043407;28;20460;-83
2023/03/25 12:30:58;;;;;;;2.13;1.20;;;13.30;1.00;;;;;;5018165;28;20464;-83
2023/03/25 12:33:37;;;;;;;8.10;1.53;;;13.40;1.00;;;;;;5043335;28;20873;-83
2023/03/25 12:36:20;;;;;;;8.23;1.33;;;13.30;1.00;;;;;;5045106;28;20459;-83
2023/03/25 12:38:56;;;;;;;1.80;1.07;;;13.30;1.00;;;;;;5046790;28;20472;-82
2023/03/25 12:41:31;;;;;;;6.60;1.00;;;13.30;1.00;;;;;;5046104;28;20404;-82
2023/03/25 12:44:02;;;;;;;1.60;0.90;;;13.00;1.00;;;;;;5044842;28;20470;-83
2023/03/25 12:46:48;;;;;;;3.53;1.13;;;12.90;1.00;;;;;;5043163;28;20857;-82
2023/03/25 12:49:33;;;;;;;2.90;1.20;;;13.00;1.00;;;;;;5043086;28;20410;-83
2023/03/25 12:52:07;;;;;;;0.77;0.70;;;13.30;1.00;;;;;;5044093;28;20503;-83
2023/03/25 12:54:49;;;;;;;1.23;1.07;;;13.60;1.00;;;;;;5042004;28;20490;-83
2023/03/25 12:57:27;;;;;;;2.67;1.07;;;14.00;1.00;;;;;;5042251;28;20484;-83
2023/03/25 13:00:13;;;;;;;2.70;1.60;;;14.20;1.00;;;;;;5041531;28;20472;-83
2023/03/25 13:03:20;;;;;;;1.60;1.43;;;14.10;1.00;;;;;;5049470;28;20532;-82
2023/03/25 13:05:54;;;;;;;2.70;1.10;;;14.30;1.00;;;;;;5004043;28;20452;-83
2023/03/25 13:08:26;;;;;;;0.90;0.90;;;14.10;1.00;;;;;;5052667;28;20448;-83
2023/03/25 13:11:01;;;;;;;2.73;1.30;;;13.80;1.00;;;;;;5048199;28;20435;-84
2023/03/25 13:13:31;;;;;;;11.10;1.97;;;13.40;1.00;;;;;;5047590;28;20490;-83
2023/03/25 13:16:04;;;;;;;1.07;0.80;;;13.40;1.00;;;;;;5047783;28;20455;-82